sensor_id;sensor_type;location;lat;lon;timestamp;temperature;humidity
20400;DHT22;10359;53.596;22.520;2023-07-13T00:00:26;16.30;1.00
20400;DHT22;10359;53.596;22.520;2023-07-13T00:03:36;16.20;1.00
20400;DHT22;10359;53.596;22.520;2023-07-13T00:10:27;16.20;1.00
20400;DHT22;10359;53.596;22.520;2023-07-13T00:13:46;16.10;1.00
20400;DHT22;10359;53.596;22.520;2023-07-13T00:20:36;16.10;1.00
20400;DHT22;10359;53.596;22.520;2023-07-13T00:27:28;16.10;1.00
20400;DHT22;10359;53.596;22.520;2023-07-13T00:34:20;16.00;1.00
20400;DHT22;10359;53.596;22.520;2023-07-13T00:41:18;16.00;1.00
20400;DHT22;10359;53.596;22.520;2023-07-13T00:47:53;15.90;1.00
20400;DHT22;10359;53.596;22.520;2023-07-13T00:54:30;15.80;1.00
20400;DHT22;10359;53.596;22.520;2023-07-13T01:01:00;15.70;1.00
20400;DHT22;10359;53.596;22.520;2023-07-13T01:11:09;15.60;1.00
20400;DHT22;10359;53.596;22.520;2023-07-13T01:18:00;15.60;1.00
20400;DHT22;10359;53.596;22.520;2023-07-13T01:20:53;15.50;1.00
20400;DHT22;10359;53.596;22.520;2023-07-13T01:24:18;15.50;1.00
20400;DHT22;10359;53.596;22.520;2023-07-13T01:27:15;15.50;1.00
20400;DHT22;10359;53.596;22.520;2023-07-13T01:30:09;15.40;1.00
20400;DHT22;10359;53.596;22.520;2023-07-13T01:37:17;15.40;1.00
20400;DHT22;10359;53.596;22.520;2023-07-13T01:43:50;15.30;1.00
20400;DHT22;10359;53.596;22.520;2023-07-13T01:47:16;15.30;1.00
20400;DHT22;10359;53.596;22.520;2023-07-13T01:57:46;15.20;1.00
20400;DHT22;10359;53.596;22.520;2023-07-13T02:00:52;15.10;1.00
20400;DHT22;10359;53.596;22.520;2023-07-13T02:08:02;15.10;1.00
20400;DHT22;10359;53.596;22.520;2023-07-13T02:15:05;15.00;1.00
20400;DHT22;10359;53.596;22.520;2023-07-13T02:21:53;14.90;1.00
20400;DHT22;10359;53.596;22.520;2023-07-13T02:28:41;14.90;1.00
20400;DHT22;10359;53.596;22.520;2023-07-13T02:35:43;14.90;1.00
20400;DHT22;10359;53.596;22.520;2023-07-13T02:42:29;14.90;1.00
20400;DHT22;10359;53.596;22.520;2023-07-13T02:49:09;14.90;1.00
20400;DHT22;10359;53.596;22.520;2023-07-13T02:56:08;15.00;1.00
20400;DHT22;10359;53.596;22.520;2023-07-13T03:02:56;15.10;1.00
20400;DHT22;10359;53.596;22.520;2023-07-13T03:10:28;15.40;1.00
20400;DHT22;10359;53.596;22.520;2023-07-13T03:13:26;15.50;1.00
20400;DHT22;10359;53.596;22.520;2023-07-13T03:20:13;15.80;1.00
20400;DHT22;10359;53.596;22.520;2023-07-13T03:27:00;16.10;1.00
20400;DHT22;10359;53.596;22.520;2023-07-13T03:33:42;16.40;1.00
20400;DHT22;10359;53.596;22.520;2023-07-13T03:40:29;16.50;1.00
20400;DHT22;10359;53.596;22.520;2023-07-13T03:47:16;16.50;1.00
20400;DHT22;10359;53.596;22.520;2023-07-13T03:54:15;16.60;1.00
20400;DHT22;10359;53.596;22.520;2023-07-13T04:01:14;16.70;1.00
20400;DHT22;10359;53.596;22.520;2023-07-13T04:08:01;17.10;1.00
20400;DHT22;10359;53.596;22.520;2023-07-13T04:18:28;17.60;1.00
20400;DHT22;10359;53.596;22.520;2023-07-13T04:25:13;17.90;1.00
20400;DHT22;10359;53.596;22.520;2023-07-13T04:32:10;18.20;1.00
20400;DHT22;10359;53.596;22.520;2023-07-13T04:39:04;18.40;1.00
20400;DHT22;10359;53.596;22.520;2023-07-13T04:45:45;18.60;1.00
20400;DHT22;10359;53.596;22.520;2023-07-13T04:52:43;18.70;1.00
20400;DHT22;10359;53.596;22.520;2023-07-13T04:59:40;18.70;1.00
20400;DHT22;10359;53.596;22.520;2023-07-13T05:10:50;19.00;1.00
20400;DHT22;10359;53.596;22.520;2023-07-13T05:13:40;19.10;1.00
20400;DHT22;10359;53.596;22.520;2023-07-13T05:20:28;19.30;1.00
20400;DHT22;10359;53.596;22.520;2023-07-13T05:31:02;20.10;1.00
20400;DHT22;10359;53.596;22.520;2023-07-13T05:53:05;21.90;99.90
20400;DHT22;10359;53.596;22.520;2023-07-13T05:59:45;21.80;99.90
20400;DHT22;10359;53.596;22.520;2023-07-13T06:06:32;22.60;99.90
20400;DHT22;10359;53.596;22.520;2023-07-13T06:09:36;22.90;99.90
20400;DHT22;10359;53.596;22.520;2023-07-13T06:16:40;23.30;99.90
20400;DHT22;10359;53.596;22.520;2023-07-13T06:23:26;23.20;99.90
20400;DHT22;10359;53.596;22.520;2023-07-13T06:30:25;23.00;99.90
20400;DHT22;10359;53.596;22.520;2023-07-13T06:37:23;22.10;99.90
20400;DHT22;10359;53.596;22.520;2023-07-13T06:44:20;22.30;99.90
20400;DHT22;10359;53.596;22.520;2023-07-13T06:51:12;23.20;99.90
20400;DHT22;10359;53.596;22.520;2023-07-13T06:58:03;23.90;99.90
20400;DHT22;10359;53.596;22.520;2023-07-13T07:04:54;23.40;99.90
20400;DHT22;10359;53.596;22.520;2023-07-13T07:11:47;23.30;99.90
20400;DHT22;10359;53.596;22.520;2023-07-13T07:18:52;23.10;99.90
20400;DHT22;10359;53.596;22.520;2023-07-13T07:25:25;23.40;99.90
20400;DHT22;10359;53.596;22.520;2023-07-13T07:32:18;23.40;99.90
20400;DHT22;10359;53.596;22.520;2023-07-13T07:39:12;23.40;99.90
20400;DHT22;10359;53.596;22.520;2023-07-13T07:46:03;23.90;99.90
20400;DHT22;10359;53.596;22.520;2023-07-13T07:52:56;23.80;99.90
20400;DHT22;10359;53.596;22.520;2023-07-13T07:59:46;23.90;99.90
20400;DHT22;10359;53.596;22.520;2023-07-13T08:06:25;24.60;99.90
20400;DHT22;10359;53.596;22.520;2023-07-13T08:13:34;24.50;99.90
20400;DHT22;10359;53.596;22.520;2023-07-13T08:20:25;24.50;99.90
20400;DHT22;10359;53.596;22.520;2023-07-13T08:26:59;24.80;99.90
20400;DHT22;10359;53.596;22.520;2023-07-13T08:33:51;24.90;99.90
20400;DHT22;10359;53.596;22.520;2023-07-13T08:40:42;24.90;99.90
20400;DHT22;10359;53.596;22.520;2023-07-13T08:47:36;25.10;99.90
20400;DHT22;10359;53.596;22.520;2023-07-13T08:54:32;25.40;99.90
20400;DHT22;10359;53.596;22.520;2023-07-13T09:01:31;25.50;99.90
20400;DHT22;10359;53.596;22.520;2023-07-13T09:08:18;25.60;99.90
20400;DHT22;10359;53.596;22.520;2023-07-13T09:15:24;25.70;99.90
20400;DHT22;10359;53.596;22.520;2023-07-13T09:22:19;25.90;99.90
20400;DHT22;10359;53.596;22.520;2023-07-13T09:29:20;26.20;99.90
20400;DHT22;10359;53.596;22.520;2023-07-13T09:36:19;26.10;99.90
20400;DHT22;10359;53.596;22.520;2023-07-13T09:42:55;26.40;99.90
20400;DHT22;10359;53.596;22.520;2023-07-13T09:57:55;27.20;99.90
20400;DHT22;10359;53.596;22.520;2023-07-13T10:04:46;27.60;99.90
20400;DHT22;10359;53.596;22.520;2023-07-13T10:07:43;27.40;99.90
20400;DHT22;10359;53.596;22.520;2023-07-13T10:22:44;27.30;99.90
20400;DHT22;10359;53.596;22.520;2023-07-13T10:29:39;27.50;99.90
20400;DHT22;10359;53.596;22.520;2023-07-13T10:44:22;27.90;99.90
20400;DHT22;10359;53.596;22.520;2023-07-13T10:51:18;28.00;99.90
20400;DHT22;10359;53.596;22.520;2023-07-13T10:54:18;28.20;99.90
20400;DHT22;10359;53.596;22.520;2023-07-13T11:01:13;29.00;99.90
20400;DHT22;10359;53.596;22.520;2023-07-13T11:24:01;29.40;99.90
20400;DHT22;10359;53.596;22.520;2023-07-13T11:31:03;29.20;99.90
20400;DHT22;10359;53.596;22.520;2023-07-13T11:41:43;29.60;99.90
20400;DHT22;10359;53.596;22.520;2023-07-13T11:56:38;29.60;99.90
20400;DHT22;10359;53.596;22.520;2023-07-13T12:03:10;29.60;99.90
20400;DHT22;10359;53.596;22.520;2023-07-13T12:13:47;29.60;99.90
20400;DHT22;10359;53.596;22.520;2023-07-13T12:20:39;29.60;99.90
20400;DHT22;10359;53.596;22.520;2023-07-13T12:31:30;29.90;99.90
20400;DHT22;10359;53.596;22.520;2023-07-13T12:38:21;31.10;99.90
20400;DHT22;10359;53.596;22.520;2023-07-13T12:44:57;32.30;99.90
20400;DHT22;10359;53.596;22.520;2023-07-13T12:51:56;31.80;99.90
20400;DHT22;10359;53.596;22.520;2023-07-13T12:58:48;31.40;99.90
20400;DHT22;10359;53.596;22.520;2023-07-13T13:05:27;31.10;99.90
20400;DHT22;10359;53.596;22.520;2023-07-13T13:12:02;30.80;99.90
20400;DHT22;10359;53.596;22.520;2023-07-13T13:18:56;30.50;99.90
20400;DHT22;10359;53.596;22.520;2023-07-13T13:25:30;30.80;99.90
20400;DHT22;10359;53.596;22.520;2023-07-13T13:32:09;31.40;99.90
20400;DHT22;10359;53.596;22.520;2023-07-13T13:39:01;31.60;99.90
20400;DHT22;10359;53.596;22.520;2023-07-13T13:45:56;31.20;99.90
20400;DHT22;10359;53.596;22.520;2023-07-13T13:52:49;31.20;99.90
20400;DHT22;10359;53.596;22.520;2023-07-13T13:59:41;31.40;99.90
20400;DHT22;10359;53.596;22.520;2023-07-13T14:06:15;32.40;99.90
20400;DHT22;10359;53.596;22.520;2023-07-13T14:13:16;33.40;99.90
20400;DHT22;10359;53.596;22.520;2023-07-13T14:20:11;31.40;99.90
20400;DHT22;10359;53.596;22.520;2023-07-13T14:27:03;31.80;99.90
20400;DHT22;10359;53.596;22.520;2023-07-13T14:33:56;33.40;99.90
20400;DHT22;10359;53.596;22.520;2023-07-13T14:40:48;34.50;99.90
20400;DHT22;10359;53.596;22.520;2023-07-13T14:47:21;33.70;99.90
20400;DHT22;10359;53.596;22.520;2023-07-13T14:53:56;31.90;99.90
20400;DHT22;10359;53.596;22.520;2023-07-13T15:00:47;31.00;99.90
20400;DHT22;10359;53.596;22.520;2023-07-13T15:07:39;30.80;99.90
20400;DHT22;10359;53.596;22.520;2023-07-13T15:14:15;30.10;99.90
20400;DHT22;10359;53.596;22.520;2023-07-13T15:21:09;29.70;99.90
20400;DHT22;10359;53.596;22.520;2023-07-13T15:28:03;29.60;99.90
20400;DHT22;10359;53.596;22.520;2023-07-13T15:34:55;29.10;99.90
20400;DHT22;10359;53.596;22.520;2023-07-13T15:41:29;28.50;99.90
20400;DHT22;10359;53.596;22.520;2023-07-13T15:48:03;27.90;99.90
20400;DHT22;10359;53.596;22.520;2023-07-13T15:54:55;27.50;99.90
20400;DHT22;10359;53.596;22.520;2023-07-13T16:01:30;27.20;99.90
20400;DHT22;10359;53.596;22.520;2023-07-13T16:08:06;26.90;99.90
20400;DHT22;10359;53.596;22.520;2023-07-13T16:19:04;26.20;99.90
20400;DHT22;10359;53.596;22.520;2023-07-13T16:25:39;25.80;99.90
20400;DHT22;10359;53.596;22.520;2023-07-13T16:32:14;25.60;99.90
20400;DHT22;10359;53.596;22.520;2023-07-13T16:39:12;25.30;99.90
20400;DHT22;10359;53.596;22.520;2023-07-13T16:46:07;25.30;99.90
20400;DHT22;10359;53.596;22.520;2023-07-13T16:53:01;25.00;99.90
20400;DHT22;10359;53.596;22.520;2023-07-13T16:59:39;25.00;99.90
20400;DHT22;10359;53.596;22.520;2023-07-13T17:06:23;24.80;99.90
20400;DHT22;10359;53.596;22.520;2023-07-13T17:17:13;24.50;99.90
20400;DHT22;10359;53.596;22.520;2023-07-13T17:24:16;24.30;99.90
20400;DHT22;10359;53.596;22.520;2023-07-13T17:31:12;24.10;99.90
20400;DHT22;10359;53.596;22.520;2023-07-13T17:38:10;23.80;99.90
20400;DHT22;10359;53.596;22.520;2023-07-13T17:44:44;23.60;99.90
20400;DHT22;10359;53.596;22.520;2023-07-13T17:47:40;23.50;99.90
20400;DHT22;10359;53.596;22.520;2023-07-13T17:54:34;23.40;99.90
20400;DHT22;10359;53.596;22.520;2023-07-13T18:01:10;23.20;99.90
20400;DHT22;10359;53.596;22.520;2023-07-13T18:07:45;23.00;99.90
20400;DHT22;10359;53.596;22.520;2023-07-13T18:14:39;23.00;99.90
20400;DHT22;10359;53.596;22.520;2023-07-13T18:21:31;22.90;99.90
20400;DHT22;10359;53.596;22.520;2023-07-13T18:28:23;22.80;99.90
20400;DHT22;10359;53.596;22.520;2023-07-13T18:35:19;22.70;99.90
20400;DHT22;10359;53.596;22.520;2023-07-13T18:38:17;22.60;99.90
20400;DHT22;10359;53.596;22.520;2023-07-13T18:45:11;22.40;99.90
20400;DHT22;10359;53.596;22.520;2023-07-13T18:52:11;22.30;99.90
20400;DHT22;10359;53.596;22.520;2023-07-13T18:58:49;22.20;99.90
20400;DHT22;10359;53.596;22.520;2023-07-13T19:05:41;22.00;99.90
20400;DHT22;10359;53.596;22.520;2023-07-13T19:12:52;22.00;99.90
20400;DHT22;10359;53.596;22.520;2023-07-13T19:15:53;21.90;99.90
20400;DHT22;10359;53.596;22.520;2023-07-13T19:22:46;21.80;99.90
20400;DHT22;10359;53.596;22.520;2023-07-13T19:29:26;21.70;99.90
20400;DHT22;10359;53.596;22.520;2023-07-13T19:36:03;21.50;99.90
20400;DHT22;10359;53.596;22.520;2023-07-13T19:42:55;21.40;99.90
20400;DHT22;10359;53.596;22.520;2023-07-13T19:49:49;21.20;99.90
20400;DHT22;10359;53.596;22.520;2023-07-13T19:56:26;21.20;99.90
20400;DHT22;10359;53.596;22.520;2023-07-13T20:03:18;21.10;99.90
20400;DHT22;10359;53.596;22.520;2023-07-13T20:10:24;21.00;99.90
20400;DHT22;10359;53.596;22.520;2023-07-13T20:17:28;20.80;99.90
20400;DHT22;10359;53.596;22.520;2023-07-13T20:24:21;20.70;99.90
20400;DHT22;10359;53.596;22.520;2023-07-13T20:31:15;20.60;99.90
20400;DHT22;10359;53.596;22.520;2023-07-13T20:38:11;20.60;99.90
20400;DHT22;10359;53.596;22.520;2023-07-13T20:45:04;20.50;99.90
20400;DHT22;10359;53.596;22.520;2023-07-13T20:51:56;20.40;99.90
20400;DHT22;10359;53.596;22.520;2023-07-13T20:58:31;20.20;99.90
20400;DHT22;10359;53.596;22.520;2023-07-13T21:05:14;20.00;99.90
20400;DHT22;10359;53.596;22.520;2023-07-13T21:12:07;19.90;99.90
20400;DHT22;10359;53.596;22.520;2023-07-13T21:18:58;19.80;99.90
20400;DHT22;10359;53.596;22.520;2023-07-13T21:25:49;19.70;99.90
20400;DHT22;10359;53.596;22.520;2023-07-13T21:32:42;19.60;99.90
20400;DHT22;10359;53.596;22.520;2023-07-13T21:39:33;19.50;99.90
20400;DHT22;10359;53.596;22.520;2023-07-13T21:46:29;19.30;99.90
20400;DHT22;10359;53.596;22.520;2023-07-13T21:53:23;19.20;99.90
20400;DHT22;10359;53.596;22.520;2023-07-13T22:00:19;19.20;99.90
20400;DHT22;10359;53.596;22.520;2023-07-13T22:07:11;19.00;99.90
20400;DHT22;10359;53.596;22.520;2023-07-13T22:14:04;19.00;99.90
20400;DHT22;10359;53.596;22.520;2023-07-13T22:20:55;19.00;99.90
20400;DHT22;10359;53.596;22.520;2023-07-13T22:27:46;18.90;99.90
20400;DHT22;10359;53.596;22.520;2023-07-13T22:34:38;18.90;99.90
20400;DHT22;10359;53.596;22.520;2023-07-13T22:41:29;18.90;99.90
20400;DHT22;10359;53.596;22.520;2023-07-13T22:48:20;18.90;99.90
20400;DHT22;10359;53.596;22.520;2023-07-13T22:54:56;18.90;99.90
20400;DHT22;10359;53.596;22.520;2023-07-13T23:01:47;18.90;99.90
20400;DHT22;10359;53.596;22.520;2023-07-13T23:08:38;18.80;99.90
20400;DHT22;10359;53.596;22.520;2023-07-13T23:15:13;18.60;99.90
20400;DHT22;10359;53.596;22.520;2023-07-13T23:22:19;18.70;99.90
20400;DHT22;10359;53.596;22.520;2023-07-13T23:29:15;18.60;99.90
20400;DHT22;10359;53.596;22.520;2023-07-13T23:35:50;18.50;99.90
20400;DHT22;10359;53.596;22.520;2023-07-13T23:42:29;18.40;99.90
20400;DHT22;10359;53.596;22.520;2023-07-13T23:49:22;18.10;99.90
20400;DHT22;10359;53.596;22.520;2023-07-13T23:55:56;17.70;99.90
